sensor_id;sensor_type;location;lat;lon;timestamp;P1;durP1;ratioP1;P2;durP2;ratioP2
30723;SDS011;17473;52.286;20.930;2023-03-24T00:01:14;10.48;;;5.28;;
30723;SDS011;17473;52.286;20.930;2023-03-24T00:03:42;10.65;;;5.50;;
30723;SDS011;17473;52.286;20.930;2023-03-24T00:06:17;9.38;;;4.75;;
30723;SDS011;17473;52.286;20.930;2023-03-24T00:08:48;6.40;;;4.38;;
30723;SDS011;17473;52.286;20.930;2023-03-24T00:11:15;7.15;;;4.40;;
30723;SDS011;17473;52.286;20.930;2023-03-24T00:13:44;6.72;;;4.10;;
30723;SDS011;17473;52.286;20.930;2023-03-24T00:16:16;7.10;;;4.13;;
30723;SDS011;17473;52.286;20.930;2023-03-24T00:18:45;9.40;;;4.95;;
30723;SDS011;17473;52.286;20.930;2023-03-24T00:21:20;8.43;;;5.18;;
30723;SDS011;17473;52.286;20.930;2023-03-24T00:23:52;8.55;;;4.55;;
30723;SDS011;17473;52.286;20.930;2023-03-24T00:26:21;11.30;;;5.55;;
30723;SDS011;17473;52.286;20.930;2023-03-24T00:28:51;12.32;;;5.65;;
30723;SDS011;17473;52.286;20.930;2023-03-24T00:31:19;9.27;;;5.82;;
30723;SDS011;17473;52.286;20.930;2023-03-24T00:33:47;8.55;;;5.20;;
30723;SDS011;17473;52.286;20.930;2023-03-24T00:36:17;16.83;;;5.22;;
30723;SDS011;17473;52.286;20.930;2023-03-24T00:38:47;10.95;;;6.15;;
30723;SDS011;17473;52.286;20.930;2023-03-24T00:41:15;17.67;;;5.68;;
30723;SDS011;17473;52.286;20.930;2023-03-24T00:43:46;11.55;;;5.95;;
30723;SDS011;17473;52.286;20.930;2023-03-24T00:46:15;12.07;;;5.70;;
30723;SDS011;17473;52.286;20.930;2023-03-24T00:48:57;10.50;;;6.80;;
30723;SDS011;17473;52.286;20.930;2023-03-24T00:51:29;10.90;;;6.68;;
30723;SDS011;17473;52.286;20.930;2023-03-24T00:54:00;11.10;;;6.25;;
30723;SDS011;17473;52.286;20.930;2023-03-24T00:56:29;9.15;;;5.95;;
30723;SDS011;17473;52.286;20.930;2023-03-24T00:58:59;16.05;;;6.80;;
30723;SDS011;17473;52.286;20.930;2023-03-24T01:01:28;11.50;;;6.82;;
30723;SDS011;17473;52.286;20.930;2023-03-24T01:04:01;9.82;;;5.88;;
30723;SDS011;17473;52.286;20.930;2023-03-24T01:06:31;11.85;;;6.78;;
30723;SDS011;17473;52.286;20.930;2023-03-24T01:09:03;13.13;;;6.30;;
30723;SDS011;17473;52.286;20.930;2023-03-24T01:11:33;12.45;;;6.70;;
30723;SDS011;17473;52.286;20.930;2023-03-24T01:14:05;11.63;;;6.65;;
30723;SDS011;17473;52.286;20.930;2023-03-24T01:16:35;11.07;;;6.78;;
30723;SDS011;17473;52.286;20.930;2023-03-24T01:19:02;14.48;;;6.63;;
30723;SDS011;17473;52.286;20.930;2023-03-24T01:21:30;16.65;;;6.90;;
30723;SDS011;17473;52.286;20.930;2023-03-24T01:24:00;11.02;;;6.65;;
30723;SDS011;17473;52.286;20.930;2023-03-24T01:26:30;13.27;;;7.03;;
30723;SDS011;17473;52.286;20.930;2023-03-24T01:28:58;15.38;;;6.68;;
30723;SDS011;17473;52.286;20.930;2023-03-24T01:31:25;11.80;;;7.25;;
30723;SDS011;17473;52.286;20.930;2023-03-24T01:33:52;13.10;;;6.72;;
30723;SDS011;17473;52.286;20.930;2023-03-24T01:36:19;13.55;;;7.30;;
30723;SDS011;17473;52.286;20.930;2023-03-24T01:38:47;10.93;;;7.00;;
30723;SDS011;17473;52.286;20.930;2023-03-24T01:41:14;11.00;;;6.63;;
30723;SDS011;17473;52.286;20.930;2023-03-24T01:43:42;13.02;;;6.68;;
30723;SDS011;17473;52.286;20.930;2023-03-24T01:49:19;17.45;;;7.05;;
30723;SDS011;17473;52.286;20.930;2023-03-24T01:51:40;10.90;;;7.03;;
30723;SDS011;17473;52.286;20.930;2023-03-24T01:56:46;10.98;;;6.85;;
30723;SDS011;17473;52.286;20.930;2023-03-24T01:59:29;11.30;;;7.25;;
30723;SDS011;17473;52.286;20.930;2023-03-24T02:02:02;8.77;;;6.40;;
30723;SDS011;17473;52.286;20.930;2023-03-24T02:04:33;12.07;;;7.25;;
30723;SDS011;17473;52.286;20.930;2023-03-24T02:07:31;9.63;;;6.60;;
30723;SDS011;17473;52.286;20.930;2023-03-24T02:10:02;10.77;;;6.30;;
30723;SDS011;17473;52.286;20.930;2023-03-24T02:12:36;10.38;;;6.50;;
30723;SDS011;17473;52.286;20.930;2023-03-24T02:15:03;11.10;;;6.75;;
30723;SDS011;17473;52.286;20.930;2023-03-24T02:18:21;9.73;;;6.15;;
30723;SDS011;17473;52.286;20.930;2023-03-24T02:20:59;12.30;;;6.37;;
30723;SDS011;17473;52.286;20.930;2023-03-24T02:26:39;8.30;;;5.53;;
30723;SDS011;17473;52.286;20.930;2023-03-24T02:40:39;12.05;;;6.35;;
30723;SDS011;17473;52.286;20.930;2023-03-24T02:47:14;10.98;;;6.07;;
30723;SDS011;17473;52.286;20.930;2023-03-24T02:50:03;10.93;;;6.03;;
30723;SDS011;17473;52.286;20.930;2023-03-24T02:55:54;10.77;;;6.47;;
30723;SDS011;17473;52.286;20.930;2023-03-24T02:58:46;8.47;;;5.70;;
30723;SDS011;17473;52.286;20.930;2023-03-24T03:01:31;12.17;;;6.27;;
30723;SDS011;17473;52.286;20.930;2023-03-24T03:04:13;10.53;;;5.90;;
30723;SDS011;17473;52.286;20.930;2023-03-24T03:06:46;10.77;;;6.37;;
30723;SDS011;17473;52.286;20.930;2023-03-24T03:09:18;10.00;;;6.10;;
30723;SDS011;17473;52.286;20.930;2023-03-24T03:11:50;10.10;;;6.00;;
30723;SDS011;17473;52.286;20.930;2023-03-24T03:14:33;9.97;;;6.07;;
30723;SDS011;17473;52.286;20.930;2023-03-24T03:17:23;9.95;;;6.10;;
30723;SDS011;17473;52.286;20.930;2023-03-24T03:20:04;8.60;;;5.17;;
30723;SDS011;17473;52.286;20.930;2023-03-24T03:22:48;9.60;;;5.63;;
30723;SDS011;17473;52.286;20.930;2023-03-24T03:25:23;7.88;;;4.57;;
30723;SDS011;17473;52.286;20.930;2023-03-24T03:27:58;11.00;;;6.40;;
30723;SDS011;17473;52.286;20.930;2023-03-24T03:30:32;10.90;;;6.00;;
30723;SDS011;17473;52.286;20.930;2023-03-24T03:33:12;7.83;;;5.20;;
30723;SDS011;17473;52.286;20.930;2023-03-24T03:35:51;13.43;;;6.50;;
30723;SDS011;17473;52.286;20.930;2023-03-24T03:38:24;9.30;;;5.80;;
30723;SDS011;17473;52.286;20.930;2023-03-24T03:41:02;11.57;;;5.80;;
30723;SDS011;17473;52.286;20.930;2023-03-24T03:43:31;11.57;;;6.13;;
30723;SDS011;17473;52.286;20.930;2023-03-24T03:45:59;18.60;;;7.70;;
30723;SDS011;17473;52.286;20.930;2023-03-24T03:48:28;11.40;;;6.37;;
30723;SDS011;17473;52.286;20.930;2023-03-24T03:50:57;9.97;;;7.00;;
30723;SDS011;17473;52.286;20.930;2023-03-24T03:56:21;14.47;;;6.70;;
30723;SDS011;17473;52.286;20.930;2023-03-24T03:58:52;9.13;;;6.20;;
30723;SDS011;17473;52.286;20.930;2023-03-24T04:01:21;12.33;;;7.00;;
30723;SDS011;17473;52.286;20.930;2023-03-24T04:10:18;10.73;;;5.90;;
30723;SDS011;17473;52.286;20.930;2023-03-24T04:19:02;9.60;;;5.77;;
30723;SDS011;17473;52.286;20.930;2023-03-24T04:24:48;10.60;;;5.63;;
30723;SDS011;17473;52.286;20.930;2023-03-24T04:30:24;12.13;;;6.77;;
30723;SDS011;17473;52.286;20.930;2023-03-24T04:33:03;10.90;;;5.90;;
30723;SDS011;17473;52.286;20.930;2023-03-24T04:35:49;9.15;;;5.45;;
30723;SDS011;17473;52.286;20.930;2023-03-24T04:38:32;9.40;;;5.87;;
30723;SDS011;17473;52.286;20.930;2023-03-24T04:41:01;12.52;;;6.13;;
30723;SDS011;17473;52.286;20.930;2023-03-24T04:43:31;10.00;;;5.57;;
30723;SDS011;17473;52.286;20.930;2023-03-24T04:46:02;8.67;;;5.77;;
30723;SDS011;17473;52.286;20.930;2023-03-24T04:48:31;9.63;;;6.10;;
30723;SDS011;17473;52.286;20.930;2023-03-24T04:50:59;13.18;;;6.47;;
30723;SDS011;17473;52.286;20.930;2023-03-24T04:53:29;11.93;;;5.78;;
30723;SDS011;17473;52.286;20.930;2023-03-24T04:58:56;11.60;;;6.28;;
30723;SDS011;17473;52.286;20.930;2023-03-24T05:01:26;8.85;;;6.13;;
30723;SDS011;17473;52.286;20.930;2023-03-24T05:03:56;10.13;;;6.27;;
30723;SDS011;17473;52.286;20.930;2023-03-24T05:06:24;13.07;;;6.30;;
30723;SDS011;17473;52.286;20.930;2023-03-24T05:08:52;10.98;;;6.07;;
30723;SDS011;17473;52.286;20.930;2023-03-24T05:11:22;11.93;;;6.55;;
30723;SDS011;17473;52.286;20.930;2023-03-24T05:13:49;11.60;;;6.43;;
30723;SDS011;17473;52.286;20.930;2023-03-24T05:16:17;9.05;;;5.90;;
30723;SDS011;17473;52.286;20.930;2023-03-24T05:18:44;11.52;;;6.38;;
30723;SDS011;17473;52.286;20.930;2023-03-24T05:21:11;10.18;;;6.30;;
30723;SDS011;17473;52.286;20.930;2023-03-24T05:23:39;11.50;;;6.40;;
30723;SDS011;17473;52.286;20.930;2023-03-24T05:26:06;9.50;;;6.53;;
30723;SDS011;17473;52.286;20.930;2023-03-24T05:28:34;12.40;;;6.40;;
30723;SDS011;17473;52.286;20.930;2023-03-24T05:31:01;13.05;;;6.95;;
30723;SDS011;17473;52.286;20.930;2023-03-24T05:33:29;13.93;;;6.47;;
30723;SDS011;17473;52.286;20.930;2023-03-24T05:35:56;14.15;;;6.97;;
30723;SDS011;17473;52.286;20.930;2023-03-24T05:38:23;9.70;;;6.28;;
30723;SDS011;17473;52.286;20.930;2023-03-24T05:40:51;13.30;;;7.20;;
30723;SDS011;17473;52.286;20.930;2023-03-24T05:43:23;10.05;;;6.85;;
30723;SDS011;17473;52.286;20.930;2023-03-24T05:45:51;16.45;;;6.85;;
30723;SDS011;17473;52.286;20.930;2023-03-24T05:48:19;11.10;;;6.93;;
30723;SDS011;17473;52.286;20.930;2023-03-24T05:50:47;15.90;;;7.03;;
30723;SDS011;17473;52.286;20.930;2023-03-24T05:53:14;12.73;;;7.18;;
30723;SDS011;17473;52.286;20.930;2023-03-24T05:55:41;13.68;;;7.60;;
30723;SDS011;17473;52.286;20.930;2023-03-24T05:58:11;11.68;;;7.25;;
30723;SDS011;17473;52.286;20.930;2023-03-24T06:00:39;13.57;;;8.48;;
30723;SDS011;17473;52.286;20.930;2023-03-24T06:03:06;15.20;;;7.55;;
30723;SDS011;17473;52.286;20.930;2023-03-24T06:05:33;13.70;;;7.20;;
30723;SDS011;17473;52.286;20.930;2023-03-24T06:08:01;13.02;;;7.45;;
30723;SDS011;17473;52.286;20.930;2023-03-24T06:10:29;12.43;;;8.02;;
30723;SDS011;17473;52.286;20.930;2023-03-24T06:12:56;25.55;;;8.90;;
30723;SDS011;17473;52.286;20.930;2023-03-24T06:15:23;13.00;;;8.20;;
30723;SDS011;17473;52.286;20.930;2023-03-24T06:17:53;13.80;;;8.32;;
30723;SDS011;17473;52.286;20.930;2023-03-24T06:20:20;12.77;;;7.88;;
30723;SDS011;17473;52.286;20.930;2023-03-24T06:22:48;16.35;;;8.40;;
30723;SDS011;17473;52.286;20.930;2023-03-24T06:25:16;15.55;;;8.50;;
30723;SDS011;17473;52.286;20.930;2023-03-24T06:27:47;17.00;;;8.55;;
30723;SDS011;17473;52.286;20.930;2023-03-24T06:30:15;15.48;;;8.50;;
30723;SDS011;17473;52.286;20.930;2023-03-24T06:32:44;11.40;;;8.15;;
30723;SDS011;17473;52.286;20.930;2023-03-24T06:35:13;20.55;;;8.68;;
30723;SDS011;17473;52.286;20.930;2023-03-24T06:37:42;13.98;;;9.73;;
30723;SDS011;17473;52.286;20.930;2023-03-24T06:40:10;14.02;;;8.98;;
30723;SDS011;17473;52.286;20.930;2023-03-24T06:42:41;19.48;;;9.48;;
30723;SDS011;17473;52.286;20.930;2023-03-24T06:45:09;18.33;;;9.48;;
30723;SDS011;17473;52.286;20.930;2023-03-24T06:47:36;15.45;;;9.07;;
30723;SDS011;17473;52.286;20.930;2023-03-24T06:50:04;16.92;;;9.48;;
30723;SDS011;17473;52.286;20.930;2023-03-24T06:52:33;19.02;;;9.95;;
30723;SDS011;17473;52.286;20.930;2023-03-24T06:55:01;18.23;;;8.55;;
30723;SDS011;17473;52.286;20.930;2023-03-24T06:57:29;16.75;;;9.05;;
30723;SDS011;17473;52.286;20.930;2023-03-24T06:59:56;15.52;;;9.35;;
30723;SDS011;17473;52.286;20.930;2023-03-24T07:02:24;15.43;;;8.80;;
30723;SDS011;17473;52.286;20.930;2023-03-24T07:05:00;15.93;;;8.77;;
30723;SDS011;17473;52.286;20.930;2023-03-24T07:07:38;26.45;;;10.07;;
30723;SDS011;17473;52.286;20.930;2023-03-24T07:10:09;16.70;;;9.52;;
30723;SDS011;17473;52.286;20.930;2023-03-24T07:12:39;16.27;;;9.05;;
30723;SDS011;17473;52.286;20.930;2023-03-24T07:15:07;14.32;;;8.90;;
30723;SDS011;17473;52.286;20.930;2023-03-24T07:17:34;15.80;;;8.95;;
30723;SDS011;17473;52.286;20.930;2023-03-24T07:20:02;17.73;;;8.98;;
30723;SDS011;17473;52.286;20.930;2023-03-24T07:22:34;16.30;;;8.90;;
30723;SDS011;17473;52.286;20.930;2023-03-24T07:25:02;14.52;;;8.68;;
30723;SDS011;17473;52.286;20.930;2023-03-24T07:27:31;16.70;;;8.93;;
30723;SDS011;17473;52.286;20.930;2023-03-24T07:29:59;17.00;;;8.73;;
30723;SDS011;17473;52.286;20.930;2023-03-24T07:32:30;17.35;;;8.55;;
30723;SDS011;17473;52.286;20.930;2023-03-24T07:35:00;15.20;;;8.00;;
30723;SDS011;17473;52.286;20.930;2023-03-24T07:37:27;12.05;;;7.53;;
30723;SDS011;17473;52.286;20.930;2023-03-24T07:39:55;15.50;;;7.60;;
30723;SDS011;17473;52.286;20.930;2023-03-24T07:42:22;12.00;;;7.28;;
30723;SDS011;17473;52.286;20.930;2023-03-24T07:44:50;13.45;;;7.43;;
30723;SDS011;17473;52.286;20.930;2023-03-24T07:47:17;15.52;;;7.85;;
30723;SDS011;17473;52.286;20.930;2023-03-24T07:49:45;11.52;;;7.10;;
30723;SDS011;17473;52.286;20.930;2023-03-24T07:52:12;13.20;;;6.57;;
30723;SDS011;17473;52.286;20.930;2023-03-24T07:54:39;14.00;;;7.55;;
30723;SDS011;17473;52.286;20.930;2023-03-24T07:57:06;10.93;;;7.18;;
30723;SDS011;17473;52.286;20.930;2023-03-24T07:59:36;11.98;;;7.70;;
30723;SDS011;17473;52.286;20.930;2023-03-24T08:02:03;15.48;;;7.85;;
30723;SDS011;17473;52.286;20.930;2023-03-24T08:04:43;18.05;;;6.82;;
30723;SDS011;17473;52.286;20.930;2023-03-24T08:07:12;12.50;;;7.47;;
30723;SDS011;17473;52.286;20.930;2023-03-24T08:09:39;10.48;;;6.25;;
30723;SDS011;17473;52.286;20.930;2023-03-24T08:12:06;8.65;;;5.68;;
30723;SDS011;17473;52.286;20.930;2023-03-24T08:14:45;11.45;;;6.30;;
30723;SDS011;17473;52.286;20.930;2023-03-24T08:17:12;9.77;;;6.60;;
30723;SDS011;17473;52.286;20.930;2023-03-24T08:19:40;11.77;;;5.78;;
30723;SDS011;17473;52.286;20.930;2023-03-24T08:22:24;9.75;;;6.32;;
30723;SDS011;17473;52.286;20.930;2023-03-24T08:24:52;11.32;;;6.25;;
30723;SDS011;17473;52.286;20.930;2023-03-24T08:27:19;14.00;;;7.63;;
30723;SDS011;17473;52.286;20.930;2023-03-24T08:29:46;14.88;;;8.07;;
30723;SDS011;17473;52.286;20.930;2023-03-24T08:32:14;13.75;;;8.10;;
30723;SDS011;17473;52.286;20.930;2023-03-24T08:34:41;14.23;;;7.35;;
30723;SDS011;17473;52.286;20.930;2023-03-24T08:37:08;13.75;;;8.57;;
30723;SDS011;17473;52.286;20.930;2023-03-24T08:39:37;17.73;;;10.75;;
30723;SDS011;17473;52.286;20.930;2023-03-24T08:42:04;13.30;;;7.65;;
30723;SDS011;17473;52.286;20.930;2023-03-24T08:44:31;13.45;;;6.82;;
30723;SDS011;17473;52.286;20.930;2023-03-24T08:46:59;12.13;;;8.00;;
30723;SDS011;17473;52.286;20.930;2023-03-24T08:49:28;15.57;;;7.53;;
30723;SDS011;17473;52.286;20.930;2023-03-24T08:51:55;13.13;;;7.07;;
30723;SDS011;17473;52.286;20.930;2023-03-24T08:54:22;10.07;;;7.03;;
30723;SDS011;17473;52.286;20.930;2023-03-24T08:56:51;15.95;;;7.22;;
30723;SDS011;17473;52.286;20.930;2023-03-24T08:59:18;13.20;;;7.05;;
30723;SDS011;17473;52.286;20.930;2023-03-24T09:01:45;10.32;;;6.63;;
30723;SDS011;17473;52.286;20.930;2023-03-24T09:04:12;14.48;;;7.85;;
30723;SDS011;17473;52.286;20.930;2023-03-24T09:06:39;15.88;;;7.47;;
30723;SDS011;17473;52.286;20.930;2023-03-24T09:09:07;12.98;;;7.93;;
30723;SDS011;17473;52.286;20.930;2023-03-24T09:11:34;12.52;;;7.38;;
30723;SDS011;17473;52.286;20.930;2023-03-24T09:14:03;12.00;;;7.43;;
30723;SDS011;17473;52.286;20.930;2023-03-24T09:16:31;9.63;;;7.25;;
30723;SDS011;17473;52.286;20.930;2023-03-24T09:18:58;13.38;;;7.10;;
30723;SDS011;17473;52.286;20.930;2023-03-24T09:21:25;16.85;;;6.50;;
30723;SDS011;17473;52.286;20.930;2023-03-24T09:23:52;10.80;;;6.93;;
30723;SDS011;17473;52.286;20.930;2023-03-24T09:26:19;13.73;;;7.00;;
30723;SDS011;17473;52.286;20.930;2023-03-24T09:28:48;9.40;;;6.13;;
30723;SDS011;17473;52.286;20.930;2023-03-24T09:31:15;14.05;;;7.38;;
30723;SDS011;17473;52.286;20.930;2023-03-24T09:33:42;9.60;;;6.20;;
30723;SDS011;17473;52.286;20.930;2023-03-24T09:36:09;9.80;;;6.35;;
30723;SDS011;17473;52.286;20.930;2023-03-24T09:38:37;9.07;;;6.07;;
30723;SDS011;17473;52.286;20.930;2023-03-24T09:41:10;11.50;;;6.43;;
30723;SDS011;17473;52.286;20.930;2023-03-24T09:43:46;8.80;;;5.40;;
30723;SDS011;17473;52.286;20.930;2023-03-24T09:46:36;8.30;;;6.25;;
30723;SDS011;17473;52.286;20.930;2023-03-24T09:49:15;10.40;;;6.43;;
30723;SDS011;17473;52.286;20.930;2023-03-24T09:51:50;12.88;;;6.70;;
30723;SDS011;17473;52.286;20.930;2023-03-24T09:54:27;10.27;;;6.55;;
30723;SDS011;17473;52.286;20.930;2023-03-24T10:03:01;13.90;;;7.07;;
30723;SDS011;17473;52.286;20.930;2023-03-24T10:08:42;11.50;;;6.43;;
30723;SDS011;17473;52.286;20.930;2023-03-24T10:17:52;14.30;;;7.00;;
30723;SDS011;17473;52.286;20.930;2023-03-24T10:26:21;9.10;;;6.63;;
30723;SDS011;17473;52.286;20.930;2023-03-24T10:31:53;11.80;;;6.47;;
30723;SDS011;17473;52.286;20.930;2023-03-24T10:34:32;11.73;;;6.63;;
30723;SDS011;17473;52.286;20.930;2023-03-24T10:37:00;10.35;;;6.70;;
30723;SDS011;17473;52.286;20.930;2023-03-24T10:39:30;11.70;;;7.65;;
30723;SDS011;17473;52.286;20.930;2023-03-24T10:42:22;71.35;;;30.40;;
30723;SDS011;17473;52.286;20.930;2023-03-24T10:44:55;26.95;;;13.75;;
30723;SDS011;17473;52.286;20.930;2023-03-24T10:47:23;14.07;;;8.13;;
30723;SDS011;17473;52.286;20.930;2023-03-24T10:49:57;17.10;;;7.32;;
30723;SDS011;17473;52.286;20.930;2023-03-24T10:52:41;15.93;;;8.05;;
30723;SDS011;17473;52.286;20.930;2023-03-24T10:55:15;10.90;;;7.45;;
30723;SDS011;17473;52.286;20.930;2023-03-24T10:57:47;8.55;;;6.15;;
30723;SDS011;17473;52.286;20.930;2023-03-24T11:02:58;13.73;;;6.18;;
30723;SDS011;17473;52.286;20.930;2023-03-24T11:05:33;13.13;;;7.05;;
30723;SDS011;17473;52.286;20.930;2023-03-24T11:10:43;11.90;;;7.03;;
30723;SDS011;17473;52.286;20.930;2023-03-24T11:13:17;13.05;;;7.15;;
30723;SDS011;17473;52.286;20.930;2023-03-24T11:16:14;13.95;;;6.32;;
30723;SDS011;17473;52.286;20.930;2023-03-24T11:19:05;13.25;;;5.90;;
30723;SDS011;17473;52.286;20.930;2023-03-24T11:21:48;9.93;;;5.90;;
30723;SDS011;17473;52.286;20.930;2023-03-24T11:24:20;10.77;;;5.53;;
30723;SDS011;17473;52.286;20.930;2023-03-24T11:26:56;11.15;;;5.95;;
30723;SDS011;17473;52.286;20.930;2023-03-24T11:29:29;12.55;;;5.93;;
30723;SDS011;17473;52.286;20.930;2023-03-24T11:32:09;12.98;;;6.68;;
30723;SDS011;17473;52.286;20.930;2023-03-24T11:34:45;10.95;;;6.13;;
30723;SDS011;17473;52.286;20.930;2023-03-24T11:37:18;8.88;;;5.78;;
30723;SDS011;17473;52.286;20.930;2023-03-24T11:40:32;8.88;;;5.80;;
30723;SDS011;17473;52.286;20.930;2023-03-24T11:42:45;11.95;;;6.22;;
30723;SDS011;17473;52.286;20.930;2023-03-24T11:50:45;7.80;;;5.72;;
30723;SDS011;17473;52.286;20.930;2023-03-24T11:55:54;12.02;;;5.72;;
30723;SDS011;17473;52.286;20.930;2023-03-24T11:58:49;12.05;;;5.57;;
30723;SDS011;17473;52.286;20.930;2023-03-24T12:01:37;12.90;;;6.30;;
30723;SDS011;17473;52.286;20.930;2023-03-24T12:07:34;12.25;;;6.97;;
30723;SDS011;17473;52.286;20.930;2023-03-24T12:10:31;10.35;;;6.25;;
30723;SDS011;17473;52.286;20.930;2023-03-24T12:13:14;11.10;;;5.53;;
30723;SDS011;17473;52.286;20.930;2023-03-24T12:43:10;15.25;;;4.40;;
30723;SDS011;17473;52.286;20.930;2023-03-24T12:46:08;22.02;;;5.85;;
30723;SDS011;17473;52.286;20.930;2023-03-24T13:03:45;9.45;;;2.92;;
30723;SDS011;17473;52.286;20.930;2023-03-24T13:06:26;4.75;;;3.30;;
30723;SDS011;17473;52.286;20.930;2023-03-24T13:11:48;8.05;;;3.20;;
30723;SDS011;17473;52.286;20.930;2023-03-24T13:14:28;9.23;;;3.05;;
30723;SDS011;17473;52.286;20.930;2023-03-24T13:17:05;4.70;;;2.70;;
30723;SDS011;17473;52.286;20.930;2023-03-24T13:19:42;4.85;;;3.05;;
30723;SDS011;17473;52.286;20.930;2023-03-24T13:22:16;5.03;;;3.08;;
30723;SDS011;17473;52.286;20.930;2023-03-24T13:24:45;11.57;;;3.30;;
30723;SDS011;17473;52.286;20.930;2023-03-24T13:27:14;7.03;;;3.40;;
30723;SDS011;17473;52.286;20.930;2023-03-24T13:30:03;4.38;;;2.90;;
30723;SDS011;17473;52.286;20.930;2023-03-24T13:32:59;6.82;;;3.08;;
30723;SDS011;17473;52.286;20.930;2023-03-24T13:36:18;8.70;;;3.05;;
30723;SDS011;17473;52.286;20.930;2023-03-24T13:39:05;5.00;;;3.03;;
30723;SDS011;17473;52.286;20.930;2023-03-24T13:41:46;6.07;;;3.22;;
30723;SDS011;17473;52.286;20.930;2023-03-24T13:46:59;5.93;;;3.13;;
30723;SDS011;17473;52.286;20.930;2023-03-24T13:49:39;7.25;;;3.20;;
30723;SDS011;17473;52.286;20.930;2023-03-24T13:52:31;11.43;;;3.35;;
30723;SDS011;17473;52.286;20.930;2023-03-24T13:55:17;12.43;;;3.03;;
30723;SDS011;17473;52.286;20.930;2023-03-24T13:57:55;7.90;;;2.90;;
30723;SDS011;17473;52.286;20.930;2023-03-24T14:00:30;8.10;;;3.13;;
30723;SDS011;17473;52.286;20.930;2023-03-24T14:03:13;6.72;;;3.00;;
30723;SDS011;17473;52.286;20.930;2023-03-24T14:06:01;4.65;;;3.38;;
30723;SDS011;17473;52.286;20.930;2023-03-24T14:08:41;4.05;;;2.42;;
30723;SDS011;17473;52.286;20.930;2023-03-24T14:19:19;7.72;;;2.72;;
30723;SDS011;17473;52.286;20.930;2023-03-24T14:21:50;4.13;;;2.80;;
30723;SDS011;17473;52.286;20.930;2023-03-24T14:24:38;7.47;;;3.28;;
30723;SDS011;17473;52.286;20.930;2023-03-24T14:32:43;7.53;;;3.50;;
30723;SDS011;17473;52.286;20.930;2023-03-24T14:35:39;3.42;;;2.58;;
30723;SDS011;17473;52.286;20.930;2023-03-24T14:40:40;7.38;;;3.92;;
30723;SDS011;17473;52.286;20.930;2023-03-24T14:46:07;3.97;;;2.67;;
30723;SDS011;17473;52.286;20.930;2023-03-24T14:49:23;14.00;;;3.45;;
30723;SDS011;17473;52.286;20.930;2023-03-24T14:51:59;4.00;;;3.03;;
30723;SDS011;17473;52.286;20.930;2023-03-24T14:55:06;8.95;;;3.05;;
30723;SDS011;17473;52.286;20.930;2023-03-24T14:57:39;7.90;;;3.55;;
30723;SDS011;17473;52.286;20.930;2023-03-24T15:00:16;8.43;;;3.08;;
30723;SDS011;17473;52.286;20.930;2023-03-24T15:06:31;2.38;;;2.17;;
30723;SDS011;17473;52.286;20.930;2023-03-24T15:08:59;8.75;;;3.00;;
30723;SDS011;17473;52.286;20.930;2023-03-24T15:11:34;5.85;;;3.22;;
30723;SDS011;17473;52.286;20.930;2023-03-24T15:14:25;10.20;;;3.45;;
30723;SDS011;17473;52.286;20.930;2023-03-24T15:16:53;4.97;;;3.28;;
30723;SDS011;17473;52.286;20.930;2023-03-24T15:19:41;11.27;;;3.55;;
30723;SDS011;17473;52.286;20.930;2023-03-24T15:22:11;6.32;;;3.35;;
30723;SDS011;17473;52.286;20.930;2023-03-24T15:24:40;7.38;;;2.75;;
30723;SDS011;17473;52.286;20.930;2023-03-24T15:29:52;4.40;;;2.92;;
30723;SDS011;17473;52.286;20.930;2023-03-24T15:32:25;5.93;;;2.60;;
30723;SDS011;17473;52.286;20.930;2023-03-24T15:35:02;4.13;;;2.90;;
30723;SDS011;17473;52.286;20.930;2023-03-24T15:37:33;7.20;;;4.40;;
30723;SDS011;17473;52.286;20.930;2023-03-24T15:40:28;9.15;;;4.53;;
30723;SDS011;17473;52.286;20.930;2023-03-24T15:42:57;7.85;;;2.85;;
30723;SDS011;17473;52.286;20.930;2023-03-24T15:45:33;13.63;;;3.75;;
30723;SDS011;17473;52.286;20.930;2023-03-24T15:48:06;5.10;;;2.60;;
30723;SDS011;17473;52.286;20.930;2023-03-24T15:50:58;5.28;;;2.58;;
30723;SDS011;17473;52.286;20.930;2023-03-24T16:01:37;5.53;;;3.03;;
30723;SDS011;17473;52.286;20.930;2023-03-24T16:04:12;7.75;;;2.47;;
30723;SDS011;17473;52.286;20.930;2023-03-24T16:06:44;3.67;;;2.38;;
30723;SDS011;17473;52.286;20.930;2023-03-24T16:09:19;7.10;;;2.95;;
30723;SDS011;17473;52.286;20.930;2023-03-24T16:11:52;8.40;;;3.72;;
30723;SDS011;17473;52.286;20.930;2023-03-24T16:14:20;7.95;;;3.75;;
30723;SDS011;17473;52.286;20.930;2023-03-24T16:16:52;11.80;;;3.53;;
30723;SDS011;17473;52.286;20.930;2023-03-24T16:19:22;5.82;;;2.97;;
30723;SDS011;17473;52.286;20.930;2023-03-24T16:21:50;8.55;;;3.63;;
30723;SDS011;17473;52.286;20.930;2023-03-24T16:24:17;6.85;;;3.70;;
30723;SDS011;17473;52.286;20.930;2023-03-24T16:26:44;5.45;;;3.05;;
30723;SDS011;17473;52.286;20.930;2023-03-24T16:29:15;8.00;;;3.40;;
30723;SDS011;17473;52.286;20.930;2023-03-24T16:31:48;8.20;;;3.60;;
30723;SDS011;17473;52.286;20.930;2023-03-24T16:34:19;8.05;;;3.60;;
30723;SDS011;17473;52.286;20.930;2023-03-24T16:36:49;14.20;;;8.20;;
30723;SDS011;17473;52.286;20.930;2023-03-24T16:39:23;6.55;;;3.92;;
30723;SDS011;17473;52.286;20.930;2023-03-24T16:41:53;7.55;;;4.28;;
30723;SDS011;17473;52.286;20.930;2023-03-24T16:44:22;16.85;;;3.97;;
30723;SDS011;17473;52.286;20.930;2023-03-24T16:46:50;9.32;;;4.20;;
30723;SDS011;17473;52.286;20.930;2023-03-24T16:49:19;7.28;;;3.90;;
30723;SDS011;17473;52.286;20.930;2023-03-24T16:51:48;8.82;;;4.13;;
30723;SDS011;17473;52.286;20.930;2023-03-24T16:54:15;11.88;;;4.60;;
30723;SDS011;17473;52.286;20.930;2023-03-24T16:56:43;8.27;;;4.28;;
30723;SDS011;17473;52.286;20.930;2023-03-24T16:59:10;7.57;;;4.28;;
30723;SDS011;17473;52.286;20.930;2023-03-24T17:01:40;8.68;;;4.43;;
30723;SDS011;17473;52.286;20.930;2023-03-24T17:04:13;8.10;;;4.03;;
30723;SDS011;17473;52.286;20.930;2023-03-24T17:06:48;9.90;;;4.93;;
30723;SDS011;17473;52.286;20.930;2023-03-24T17:09:20;9.43;;;5.10;;
30723;SDS011;17473;52.286;20.930;2023-03-24T17:11:49;8.02;;;4.97;;
30723;SDS011;17473;52.286;20.930;2023-03-24T17:14:20;8.32;;;5.05;;
30723;SDS011;17473;52.286;20.930;2023-03-24T17:16:48;7.00;;;4.93;;
30723;SDS011;17473;52.286;20.930;2023-03-24T17:19:19;8.15;;;5.25;;
30723;SDS011;17473;52.286;20.930;2023-03-24T17:21:48;8.70;;;5.68;;
30723;SDS011;17473;52.286;20.930;2023-03-24T17:24:28;7.38;;;5.05;;
30723;SDS011;17473;52.286;20.930;2023-03-24T17:27:11;12.13;;;5.50;;
30723;SDS011;17473;52.286;20.930;2023-03-24T17:29:46;8.32;;;5.18;;
30723;SDS011;17473;52.286;20.930;2023-03-24T17:32:13;8.80;;;5.60;;
30723;SDS011;17473;52.286;20.930;2023-03-24T17:34:41;8.75;;;5.32;;
30723;SDS011;17473;52.286;20.930;2023-03-24T17:37:12;6.47;;;4.85;;
30723;SDS011;17473;52.286;20.930;2023-03-24T17:39:39;8.57;;;5.78;;
30723;SDS011;17473;52.286;20.930;2023-03-24T17:42:06;7.78;;;5.75;;
30723;SDS011;17473;52.286;20.930;2023-03-24T17:44:34;8.43;;;5.82;;
30723;SDS011;17473;52.286;20.930;2023-03-24T17:47:01;12.93;;;6.30;;
30723;SDS011;17473;52.286;20.930;2023-03-24T17:49:28;7.63;;;5.75;;
30723;SDS011;17473;52.286;20.930;2023-03-24T17:51:56;11.45;;;6.60;;
30723;SDS011;17473;52.286;20.930;2023-03-24T17:54:23;9.48;;;6.88;;